Time;durP1;ratioP1;P1;durP2;ratioP2;P2;SDS_P1;SDS_P2;PMS_P1;PMS_P2;Temp;Humidity;BMP_temperature;BMP_pressure;BME280_temperature;BME280_humidity;BME280_pressure;Samples;Min_cycle;Max_cycle;Signal;HPM_P1;HPM_P2
2023/03/27 00:01:18;;;;;;;;;;;19.50;56.10;;;;;;5072995;28;19973;-75
2023/03/27 00:03:47;;;;;;;;;;;19.50;56.20;;;;;;5072424;28;19999;-76
2023/03/27 00:06:17;;;;;;;;;;;19.50;56.20;;;;;;5072663;28;19917;-76
2023/03/27 00:08:43;;;;;;;;;;;19.40;56.20;;;;;;5072840;28;19922;-76
2023/03/27 00:11:10;;;;;;;;;;;19.40;56.20;;;;;;5072730;28;19908;-76
2023/03/27 00:13:37;;;;;;;;;;;19.40;56.20;;;;;;5070937;28;20025;-76
2023/03/27 00:16:04;;;;;;;;;;;19.50;56.20;;;;;;5071566;28;19912;-77
2023/03/27 00:18:31;;;;;;;;;;;19.30;56.20;;;;;;5072670;28;19908;-76
2023/03/27 00:20:57;;;;;;;;;;;19.50;56.40;;;;;;5072619;28;19913;-76
2023/03/27 00:23:24;;;;;;;;;;;19.40;56.20;;;;;;5072281;28;20375;-76
2023/03/27 00:25:50;;;;;;;;;;;19.50;56.40;;;;;;5072646;28;19916;-76
2023/03/27 00:28:16;;;;;;;;;;;19.40;56.40;;;;;;5072378;28;19916;-76
2023/03/27 00:30:42;;;;;;;;;;;19.40;56.40;;;;;;5071024;28;19919;-76
2023/03/27 00:33:10;;;;;;;;;;;19.30;56.50;;;;;;5069593;28;20011;-77
2023/03/27 00:35:36;;;;;;;;;;;19.40;56.40;;;;;;5052900;28;19993;-76
2023/03/27 00:38:02;;;;;;;;;;;19.40;56.30;;;;;;5069700;28;20012;-76
2023/03/27 00:40:28;;;;;;;;;;;19.60;56.20;;;;;;5053106;28;20007;-76
2023/03/27 00:42:56;;;;;;;;;;;19.40;56.10;;;;;;5069664;28;20011;-76
2023/03/27 00:45:25;;;;;;;;;;;19.60;56.20;;;;;;5052407;28;19912;-76
2023/03/27 00:47:53;;;;;;;;;;;19.50;56.10;;;;;;5052959;28;19909;-76
2023/03/27 00:50:20;;;;;;;;;;;19.60;56.10;;;;;;5069588;28;19908;-75
2023/03/27 00:52:49;;;;;;;;;;;19.50;56.00;;;;;;5049405;28;19909;-76
2023/03/27 00:55:18;;;;;;;;;;;19.70;56.00;;;;;;5049429;28;19920;-76
2023/03/27 00:57:47;;;;;;;;;;;19.60;55.70;;;;;;5049463;28;19908;-76
2023/03/27 01:00:15;;;;;;;;;;;19.60;55.60;;;;;;5029429;28;19916;-76
2023/03/27 01:02:43;;;;;;;;;;;19.80;55.60;;;;;;5029350;28;19909;-76
2023/03/27 01:05:10;;;;;;;;;;;19.70;55.50;;;;;;5029326;28;20071;-76
2023/03/27 01:07:36;;;;;;;;;;;19.70;55.50;;;;;;5012872;28;19912;-76
2023/03/27 01:10:05;;;;;;;;;;;19.70;55.40;;;;;;5012678;28;20496;-76
2023/03/27 01:13:03;;;;;;;;;;;19.70;55.40;;;;;;4980017;28;20391;-76
2023/03/27 01:15:32;;;;;;;;;;;19.80;55.40;;;;;;4970388;28;19914;-76
2023/03/27 01:18:06;;;;;;;;;;;19.80;55.30;;;;;;4954425;28;19933;-76
2023/03/27 01:20:44;;;;;;;;;;;19.80;55.20;;;;;;4970526;28;19956;-77
2023/03/27 01:23:10;;;;;;;;;;;19.90;55.20;;;;;;4975306;28;19959;-76
2023/03/27 01:26:00;;;;;;;;;;;19.90;55.10;;;;;;4973409;28;19913;-76
2023/03/27 01:28:36;;;;;;;;;;;19.80;55.00;;;;;;4957606;28;19913;-76
2023/03/27 01:31:16;;;;;;;;;;;19.90;55.00;;;;;;4989458;28;19920;-76
2023/03/27 01:33:56;;;;;;;;;;;19.90;54.90;;;;;;5012566;28;19965;-76
2023/03/27 01:36:49;;;;;;;;;;;20.00;54.90;;;;;;5012551;28;19913;-76
2023/03/27 01:39:17;;;;;;;;;;;20.00;54.80;;;;;;4969524;28;19910;-76
2023/03/27 01:41:46;;;;;;;;;;;19.90;54.80;;;;;;4938326;28;20321;-76
2023/03/27 01:44:24;;;;;;;;;;;19.90;54.80;;;;;;4953824;28;19949;-76
2023/03/27 01:46:56;;;;;;;;;;;19.80;54.60;;;;;;4954129;28;20294;-76
2023/03/27 01:49:27;;;;;;;;;;;19.80;54.60;;;;;;4954193;28;19920;-76
2023/03/27 01:52:04;;;;;;;;;;;19.90;54.60;;;;;;4985963;28;19929;-76
2023/03/27 01:54:34;;;;;;;;;;;19.90;54.60;;;;;;4992755;28;19956;-76
2023/03/27 01:57:11;;;;;;;;;;;19.80;54.50;;;;;;4992797;28;19917;-76
2023/03/27 01:59:40;;;;;;;;;;;19.90;54.60;;;;;;4989339;28;20004;-76
2023/03/27 02:02:09;;;;;;;;;;;19.80;54.60;;;;;;4989554;28;20000;-76
2023/03/27 02:04:39;;;;;;;;;;;19.80;54.60;;;;;;4989186;28;19918;-76
2023/03/27 02:07:09;;;;;;;;;;;19.80;54.60;;;;;;4957124;28;20016;-76
2023/03/27 02:10:02;;;;;;;;;;;19.80;54.70;;;;;;4973111;28;19941;-76
2023/03/27 02:12:31;;;;;;;;;;;19.70;54.70;;;;;;4950675;29;20014;-76
2023/03/27 02:15:09;;;;;;;;;;;19.70;54.70;;;;;;4952970;28;19926;-76
2023/03/27 02:17:38;;;;;;;;;;;19.60;54.70;;;;;;5008915;28;19910;-76
2023/03/27 02:20:15;;;;;;;;;;;19.70;54.90;;;;;;4992508;28;20036;-76
2023/03/27 02:22:42;;;;;;;;;;;19.70;54.90;;;;;;4992503;28;20273;-76
2023/03/27 02:25:26;;;;;;;;;;;19.70;54.80;;;;;;5008782;28;19913;-76
2023/03/27 02:28:15;;;;;;;;;;;19.70;54.80;;;;;;4992610;28;20408;-76
2023/03/27 02:30:56;;;;;;;;;;;19.70;54.70;;;;;;4960688;28;20425;-76
2023/03/27 02:33:55;;;;;;;;;;;19.80;54.60;;;;;;4953657;28;20005;-76
2023/03/27 02:36:40;;;;;;;;;;;19.80;54.50;;;;;;4934534;29;19969;-75
2023/03/27 02:39:12;;;;;;;;;;;19.70;54.50;;;;;;4934527;29;20004;-76
2023/03/27 02:41:49;;;;;;;;;;;19.90;54.50;;;;;;4918283;29;19910;-76
2023/03/27 02:44:36;;;;;;;;;;;19.80;54.40;;;;;;4934172;29;20033;-76
2023/03/27 02:47:10;;;;;;;;;;;19.80;54.30;;;;;;4934343;29;19915;-76
2023/03/27 02:49:41;;;;;;;;;;;19.80;54.20;;;;;;4959409;28;20332;-76
2023/03/27 02:52:13;;;;;;;;;;;19.70;54.20;;;;;;4975722;28;19909;-76
2023/03/27 02:54:46;;;;;;;;;;;19.60;54.20;;;;;;4976168;28;19917;-76
2023/03/27 02:57:14;;;;;;;;;;;19.70;54.40;;;;;;4976320;28;19910;-76
2023/03/27 03:00:04;;;;;;;;;;;19.70;54.40;;;;;;4934257;29;20063;-76
2023/03/27 03:02:36;;;;;;;;;;;19.70;54.50;;;;;;4934555;29;19958;-76
2023/03/27 03:05:06;;;;;;;;;;;19.60;54.30;;;;;;4934124;29;20018;-76
2023/03/27 03:07:37;;;;;;;;;;;19.60;54.40;;;;;;4952206;28;20408;-76
2023/03/27 03:10:07;;;;;;;;;;;19.60;54.50;;;;;;4956653;28;20394;-75
2023/03/27 03:12:33;;;;;;;;;;;19.60;54.60;;;;;;4965671;28;20021;-76
2023/03/27 03:14:59;;;;;;;;;;;19.50;54.60;;;;;;4972534;28;20001;-76
2023/03/27 03:17:25;;;;;;;;;;;19.60;54.70;;;;;;4972612;28;19929;-76
2023/03/27 03:19:52;;;;;;;;;;;19.50;54.70;;;;;;4972628;28;19909;-76
2023/03/27 03:22:18;;;;;;;;;;;19.50;54.70;;;;;;4972387;28;19949;-76
2023/03/27 03:24:44;;;;;;;;;;;19.50;54.60;;;;;;4956171;28;19914;-76
2023/03/27 03:27:14;;;;;;;;;;;19.60;54.60;;;;;;4956386;28;19998;-76
2023/03/27 03:29:49;;;;;;;;;;;19.60;54.60;;;;;;4956281;28;20360;-76
2023/03/27 03:32:18;;;;;;;;;;;19.60;54.50;;;;;;4956261;28;20436;-76
2023/03/27 03:34:46;;;;;;;;;;;19.60;54.50;;;;;;4956018;28;19961;-76
2023/03/27 03:37:14;;;;;;;;;;;19.50;54.50;;;;;;4989643;28;19909;-76
2023/03/27 03:39:40;;;;;;;;;;;19.60;54.50;;;;;;4998421;28;20100;-76
2023/03/27 03:42:05;;;;;;;;;;;19.60;54.40;;;;;;5014337;28;19913;-76
2023/03/27 03:44:33;;;;;;;;;;;19.70;54.40;;;;;;5014607;28;20381;-76
2023/03/27 03:47:07;;;;;;;;;;;19.60;54.20;;;;;;5014437;28;19916;-76
2023/03/27 03:49:32;;;;;;;;;;;19.70;54.20;;;;;;5014410;28;20056;-76
2023/03/27 03:51:59;;;;;;;;;;;19.80;54.10;;;;;;5014497;28;19912;-76
2023/03/27 03:54:25;;;;;;;;;;;19.70;54.00;;;;;;5014187;28;19909;-76
2023/03/27 03:56:51;;;;;;;;;;;19.60;54.00;;;;;;5014155;28;20388;-76
2023/03/27 03:59:16;;;;;;;;;;;19.60;54.10;;;;;;5004460;28;19908;-76
2023/03/27 04:02:11;;;;;;;;;;;19.70;54.30;;;;;;4952331;28;19931;-76
2023/03/27 04:04:37;;;;;;;;;;;19.60;54.30;;;;;;4968357;28;19918;-76
2023/03/27 04:07:08;;;;;;;;;;;19.60;54.40;;;;;;4968807;28;19914;-76
2023/03/27 04:09:38;;;;;;;;;;;19.60;54.40;;;;;;4968988;28;20378;-76
2023/03/27 04:12:10;;;;;;;;;;;19.50;54.40;;;;;;4957333;28;20015;-76
2023/03/27 04:14:59;;;;;;;;;;;19.50;54.50;;;;;;4952316;29;19918;-76
2023/03/27 04:17:48;;;;;;;;;;;19.50;54.60;;;;;;4984603;28;20052;-76
2023/03/27 04:20:14;;;;;;;;;;;19.40;54.60;;;;;;4971401;28;19921;-76
2023/03/27 04:22:45;;;;;;;;;;;19.50;54.70;;;;;;4971252;28;19913;-76
2023/03/27 04:25:12;;;;;;;;;;;19.60;54.50;;;;;;4971051;28;19929;-76
2023/03/27 04:27:38;;;;;;;;;;;19.60;54.50;;;;;;4971438;28;19966;-76
2023/03/27 04:30:15;;;;;;;;;;;19.60;54.50;;;;;;4971851;28;20283;-76
2023/03/27 04:32:59;;;;;;;;;;;19.60;54.50;;;;;;4971143;28;20683;-76
2023/03/27 04:35:37;;;;;;;;;;;19.60;54.40;;;;;;4932502;29;19914;-76
2023/03/27 04:38:16;;;;;;;;;;;19.60;54.40;;;;;;4925407;28;19914;-76
2023/03/27 04:40:48;;;;;;;;;;;19.40;54.30;;;;;;4971147;28;19964;-76
2023/03/27 04:43:16;;;;;;;;;;;19.50;54.40;;;;;;4954886;28;20322;-76
2023/03/27 04:45:47;;;;;;;;;;;19.50;54.40;;;;;;4970827;28;19917;-76
2023/03/27 04:48:14;;;;;;;;;;;19.60;54.40;;;;;;4970927;28;19914;-75
2023/03/27 04:50:42;;;;;;;;;;;19.50;54.40;;;;;;4955002;28;19917;-76
2023/03/27 04:53:11;;;;;;;;;;;19.60;54.30;;;;;;4992939;28;20013;-76
2023/03/27 04:55:46;;;;;;;;;;;19.60;54.20;;;;;;4994243;28;20543;-76
2023/03/27 04:58:14;;;;;;;;;;;19.70;54.30;;;;;;5013637;28;19909;-76
2023/03/27 05:00:40;;;;;;;;;;;19.70;54.20;;;;;;5029322;28;19935;-76
2023/03/27 05:03:44;;;;;;;;;;;19.60;53.90;;;;;;4990242;28;20401;-76
2023/03/27 05:06:17;;;;;;;;;;;19.70;54.00;;;;;;4996751;28;19913;-76
2023/03/27 05:08:44;;;;;;;;;;;19.70;54.00;;;;;;4993453;28;19913;-76
2023/03/27 05:11:21;;;;;;;;;;;19.70;53.90;;;;;;4993216;28;20039;-76
2023/03/27 05:13:48;;;;;;;;;;;19.80;53.80;;;;;;4992429;28;20570;-76
2023/03/27 05:16:16;;;;;;;;;;;19.70;53.80;;;;;;5006683;28;19920;-76
2023/03/27 05:18:44;;;;;;;;;;;19.70;53.90;;;;;;4977320;28;19916;-76
2023/03/27 05:21:11;;;;;;;;;;;19.60;53.80;;;;;;4993288;28;19953;-76
2023/03/27 05:23:37;;;;;;;;;;;19.60;53.80;;;;;;5009559;28;19957;-76
2023/03/27 05:26:05;;;;;;;;;;;19.80;53.90;;;;;;4992938;28;19917;-76
2023/03/27 05:28:57;;;;;;;;;;;19.70;53.90;;;;;;4993146;28;19971;-76
2023/03/27 05:31:24;;;;;;;;;;;19.70;53.80;;;;;;4993033;28;20009;-77
2023/03/27 05:33:58;;;;;;;;;;;19.70;53.80;;;;;;5012698;28;20329;-76
2023/03/27 05:36:28;;;;;;;;;;;19.70;53.80;;;;;;5070056;28;20368;-76
2023/03/27 05:38:56;;;;;;;;;;;19.70;53.70;;;;;;5070132;28;19912;-76
2023/03/27 05:41:43;;;;;;;;;;;19.70;53.80;;;;;;5071442;28;19909;-76
2023/03/27 05:44:09;;;;;;;;;;;19.70;53.90;;;;;;5071325;28;19970;-76
2023/03/27 05:46:39;;;;;;;;;;;19.70;53.80;;;;;;5070125;28;19920;-76
2023/03/27 05:49:14;;;;;;;;;;;19.70;53.70;;;;;;5070217;28;20354;-76
2023/03/27 05:51:42;;;;;;;;;;;19.80;53.60;;;;;;5070099;28;19914;-76
2023/03/27 05:54:08;;;;;;;;;;;19.90;53.50;;;;;;5070060;28;19965;-76
2023/03/27 05:56:45;;;;;;;;;;;19.90;53.40;;;;;;5070061;28;19962;-76
2023/03/27 05:59:11;;;;;;;;;;;20.00;53.30;;;;;;5070033;28;20324;-76
2023/03/27 06:01:39;;;;;;;;;;;20.00;53.10;;;;;;5069967;28;20007;-76
2023/03/27 06:04:05;;;;;;;;;;;19.80;53.10;;;;;;5069617;28;20280;-76
2023/03/27 06:06:49;;;;;;;;;;;19.90;53.40;;;;;;5069753;28;20342;-76
2023/03/27 06:09:15;;;;;;;;;;;20.00;53.40;;;;;;5070176;28;19915;-76
2023/03/27 06:11:49;;;;;;;;;;;19.90;53.40;;;;;;5070030;28;19912;-76
2023/03/27 06:14:17;;;;;;;;;;;19.80;53.30;;;;;;5070091;28;20391;-77
2023/03/27 06:17:01;;;;;;;;;;;20.00;53.20;;;;;;5069537;28;20390;-76
2023/03/27 06:19:43;;;;;;;;;;;20.00;53.20;;;;;;5070044;28;19909;-76
2023/03/27 06:22:09;;;;;;;;;;;20.00;53.10;;;;;;5053050;28;19966;-77
2023/03/27 06:24:37;;;;;;;;;;;20.00;53.10;;;;;;5070352;28;19919;-76
2023/03/27 06:27:03;;;;;;;;;;;20.00;53.00;;;;;;5073402;28;19973;-76
2023/03/27 06:29:32;;;;;;;;;;;20.10;52.90;;;;;;5073741;28;20339;-76
2023/03/27 06:32:00;;;;;;;;;;;20.10;52.80;;;;;;5057120;28;19916;-77
2023/03/27 06:34:30;;;;;;;;;;;20.10;52.70;;;;;;5073317;28;19931;-76
2023/03/27 06:37:35;;;;;;;;;;;20.00;52.80;;;;;;5074245;28;19919;-76
2023/03/27 06:40:04;;;;;;;;;;;20.10;52.90;;;;;;5073618;28;20011;-76
2023/03/27 06:42:32;;;;;;;;;;;20.00;52.60;;;;;;5073457;28;19920;-76
2023/03/27 06:45:18;;;;;;;;;;;20.10;52.80;;;;;;5074591;28;19916;-76
2023/03/27 06:48:03;;;;;;;;;;;20.10;52.70;;;;;;5074077;28;19934;-76
2023/03/27 06:50:40;;;;;;;;;;;20.00;52.60;;;;;;5072834;28;19908;-76
2023/03/27 06:53:06;;;;;;;;;;;20.10;52.80;;;;;;5073007;28;20291;-76
2023/03/27 06:55:37;;;;;;;;;;;20.10;52.80;;;;;;5072975;28;20291;-76
2023/03/27 06:58:03;;;;;;;;;;;20.10;52.80;;;;;;5072820;28;19995;-76
2023/03/27 07:00:30;;;;;;;;;;;20.10;52.80;;;;;;5073025;28;20000;-77
2023/03/27 07:03:16;;;;;;;;;;;20.10;52.90;;;;;;5074293;28;19952;-76
2023/03/27 07:05:48;;;;;;;;;;;20.10;53.00;;;;;;5074107;28;20007;-76
2023/03/27 07:08:15;;;;;;;;;;;20.00;52.90;;;;;;5072615;28;20368;-76
2023/03/27 07:10:44;;;;;;;;;;;20.00;52.90;;;;;;5072946;28;20343;-76
2023/03/27 07:13:11;;;;;;;;;;;20.10;52.80;;;;;;5072404;28;19920;-76
2023/03/27 07:15:37;;;;;;;;;;;20.20;52.80;;;;;;5072779;28;19908;-75
2023/03/27 07:18:05;;;;;;;;;;;20.20;52.80;;;;;;5072414;28;20438;-76
2023/03/27 07:20:32;;;;;;;;;;;20.10;52.70;;;;;;5072651;28;19913;-76
2023/03/27 07:23:03;;;;;;;;;;;20.10;52.60;;;;;;5072536;28;19960;-76
2023/03/27 07:25:48;;;;;;;;;;;20.20;52.50;;;;;;5072293;28;20225;-77
2023/03/27 07:28:25;;;;;;;;;;;20.20;52.60;;;;;;5057696;28;19944;-76
2023/03/27 07:30:51;;;;;;;;;;;20.30;52.40;;;;;;5072608;28;19962;-76
2023/03/27 07:33:19;;;;;;;;;;;20.30;52.20;;;;;;5072246;28;20468;-77
2023/03/27 07:35:46;;;;;;;;;;;20.30;52.50;;;;;;5072043;28;20003;-76
2023/03/27 07:38:41;;;;;;;;;;;20.30;52.00;;;;;;5011377;28;19909;-76
2023/03/27 07:41:24;;;;;;;;;;;20.30;52.30;;;;;;4994871;28;20332;-76
2023/03/27 07:44:10;;;;;;;;;;;20.50;52.00;;;;;;5011249;28;19917;-76
2023/03/27 07:46:45;;;;;;;;;;;20.50;51.30;;;;;;4994659;28;19917;-76
2023/03/27 07:49:12;;;;;;;;;;;20.50;50.70;;;;;;5011291;28;19916;-76
2023/03/27 07:51:38;;;;;;;;;;;20.60;50.60;;;;;;5011089;28;20017;-76
2023/03/27 07:54:05;;;;;;;;;;;20.60;50.70;;;;;;4994778;28;20381;-76
2023/03/27 07:56:35;;;;;;;;;;;20.60;51.70;;;;;;4994352;28;19931;-76
2023/03/27 07:59:31;;;;;;;;;;;20.50;51.90;;;;;;5010818;28;19909;-76
2023/03/27 08:02:04;;;;;;;;;;;20.60;51.50;;;;;;5010964;28;20005;-76
2023/03/27 08:04:35;;;;;;;;;;;20.60;50.90;;;;;;5010750;28;19921;-76
2023/03/27 08:07:05;;;;;;;;;;;20.60;51.70;;;;;;5010719;28;19917;-76
2023/03/27 08:09:33;;;;;;;;;;;20.60;51.40;;;;;;5010665;28;20768;-75
2023/03/27 08:11:59;;;;;;;;;;;20.60;51.80;;;;;;5010567;28;19996;-76
2023/03/27 08:14:25;;;;;;;;;;;20.50;51.40;;;;;;5010807;28;19916;-77
2023/03/27 08:16:54;;;;;;;;;;;20.60;50.80;;;;;;5010416;28;19909;-76
2023/03/27 08:19:24;;;;;;;;;;;20.60;51.40;;;;;;5010429;28;19909;-76
2023/03/27 08:21:56;;;;;;;;;;;20.50;50.40;;;;;;5010488;28;19921;-76
2023/03/27 08:24:22;;;;;;;;;;;20.50;51.50;;;;;;5010459;28;19971;-76
2023/03/27 08:27:03;;;;;;;;;;;20.40;50.60;;;;;;5010351;28;19921;-76
2023/03/27 08:29:33;;;;;;;;;;;20.50;50.80;;;;;;5010255;28;19948;-76
2023/03/27 08:31:59;;;;;;;;;;;20.30;51.40;;;;;;4977679;28;19909;-76
2023/03/27 08:34:26;;;;;;;;;;;20.50;51.80;;;;;;5010390;28;19909;-76
2023/03/27 08:36:53;;;;;;;;;;;20.50;51.40;;;;;;5031687;28;19913;-76
2023/03/27 08:39:23;;;;;;;;;;;20.60;51.90;;;;;;5033395;28;19909;-76
2023/03/27 08:42:01;;;;;;;;;;;20.60;51.90;;;;;;5033318;28;20392;-76
2023/03/27 08:44:33;;;;;;;;;;;20.70;52.00;;;;;;5033214;28;20313;-76
2023/03/27 08:47:12;;;;;;;;;;;20.50;51.40;;;;;;5049603;28;20355;-76
2023/03/27 08:49:57;;;;;;;;;;;20.60;51.50;;;;;;5039130;28;19934;-76
2023/03/27 08:52:43;;;;;;;;;;;20.60;50.00;;;;;;5071978;28;19915;-76
2023/03/27 08:55:19;;;;;;;;;;;20.70;51.10;;;;;;5071942;28;19916;-76
2023/03/27 08:58:03;;;;;;;;;;;20.70;51.10;;;;;;5056210;28;19919;-76
2023/03/27 09:00:32;;;;;;;;;;;20.70;50.30;;;;;;5053925;28;20003;-76
2023/03/27 09:03:23;;;;;;;;;;;20.70;50.40;;;;;;5053709;28;19916;-76
2023/03/27 09:05:57;;;;;;;;;;;20.80;50.80;;;;;;5049030;28;19920;-76
2023/03/27 09:08:26;;;;;;;;;;;20.70;50.00;;;;;;5016559;28;20388;-76
2023/03/27 09:10:52;;;;;;;;;;;20.70;50.90;;;;;;5032569;28;19909;-76
2023/03/27 09:13:32;;;;;;;;;;;20.70;49.20;;;;;;5049179;28;20010;-76
2023/03/27 09:16:21;;;;;;;;;;;20.80;49.70;;;;;;5029135;28;19916;-76
2023/03/27 09:19:02;;;;;;;;;;;20.70;48.60;;;;;;4970902;28;19964;-76
2023/03/27 09:21:41;;;;;;;;;;;20.80;50.90;;;;;;4954489;28;20452;-76
2023/03/27 09:24:16;;;;;;;;;;;20.60;50.00;;;;;;4954331;28;20384;-76
2023/03/27 09:27:13;;;;;;;;;;;20.70;48.80;;;;;;4970390;28;19921;-75
2023/03/27 09:29:49;;;;;;;;;;;20.60;47.60;;;;;;4950761;29;19914;-76
2023/03/27 09:32:36;;;;;;;;;;;20.60;48.10;;;;;;4950921;29;19910;-76
2023/03/27 09:35:03;;;;;;;;;;;20.60;48.80;;;;;;4951022;29;19997;-76
2023/03/27 09:37:29;;;;;;;;;;;20.50;50.80;;;;;;4965683;28;19914;-76
2023/03/27 09:39:58;;;;;;;;;;;20.50;49.50;;;;;;4954294;28;19917;-76
2023/03/27 09:42:29;;;;;;;;;;;20.60;50.60;;;;;;4954730;28;20484;-76
2023/03/27 09:44:57;;;;;;;;;;;20.60;49.90;;;;;;4970290;28;19953;-76
2023/03/27 09:47:24;;;;;;;;;;;20.50;51.20;;;;;;4983508;28;20445;-76
2023/03/27 09:49:56;;;;;;;;;;;20.60;50.00;;;;;;4973228;28;20060;-76
2023/03/27 09:52:39;;;;;;;;;;;20.60;50.30;;;;;;4973664;28;19952;-76
2023/03/27 09:55:33;;;;;;;;;;;20.60;50.10;;;;;;4991919;28;19908;-76
2023/03/27 09:58:12;;;;;;;;;;;20.70;50.80;;;;;;5031796;28;19909;-76
2023/03/27 10:00:41;;;;;;;;;;;20.70;50.50;;;;;;5061481;28;19908;-76
2023/03/27 10:03:13;;;;;;;;;;;20.60;48.00;;;;;;5073986;28;19908;-76
2023/03/27 10:05:39;;;;;;;;;;;20.70;51.10;;;;;;5074156;28;20356;-76
2023/03/27 10:08:38;;;;;;;;;;;20.60;50.10;;;;;;5075114;28;19931;-77
2023/03/27 10:11:16;;;;;;;;;;;20.70;51.70;;;;;;4977096;28;19988;-76
2023/03/27 10:13:48;;;;;;;;;;;20.80;51.50;;;;;;4954281;29;19926;-76
2023/03/27 10:16:19;;;;;;;;;;;20.90;51.00;;;;;;4954521;29;20469;-76
2023/03/27 10:18:58;;;;;;;;;;;20.80;51.40;;;;;;4938634;29;19914;-76
2023/03/27 10:21:27;;;;;;;;;;;20.70;49.20;;;;;;4938517;29;19933;-76
2023/03/27 10:24:01;;;;;;;;;;;20.70;51.50;;;;;;4938367;29;19914;-76
2023/03/27 10:26:47;;;;;;;;;;;20.80;50.90;;;;;;4954011;29;19914;-76
2023/03/27 10:29:22;;;;;;;;;;;20.80;51.40;;;;;;4938243;29;19921;-76
2023/03/27 10:31:52;;;;;;;;;;;20.80;49.00;;;;;;4938388;29;19914;-76
2023/03/27 10:34:38;;;;;;;;;;;20.80;50.80;;;;;;4938276;29;19910;-76
2023/03/27 10:37:39;;;;;;;;;;;20.80;51.30;;;;;;4878467;29;19916;-76
2023/03/27 10:40:36;;;;;;;;;;;20.70;51.30;;;;;;4862799;29;19922;-76
2023/03/27 10:43:24;;;;;;;;;;;20.70;51.00;;;;;;4877852;29;19920;-76
2023/03/27 10:45:52;;;;;;;;;;;20.70;51.00;;;;;;4925239;28;20496;-75
2023/03/27 10:48:33;;;;;;;;;;;20.80;51.40;;;;;;4992420;28;19910;-76
2023/03/27 10:51:02;;;;;;;;;;;20.60;51.40;;;;;;4992365;28;19913;-76
2023/03/27 10:53:53;;;;;;;;;;;20.60;51.60;;;;;;4992268;28;20465;-76
2023/03/27 10:56:29;;;;;;;;;;;20.50;51.60;;;;;;4976225;28;19920;-76
2023/03/27 10:59:07;;;;;;;;;;;20.70;51.60;;;;;;4976178;28;19956;-76
2023/03/27 11:01:40;;;;;;;;;;;20.60;51.50;;;;;;4992494;28;20047;-76
2023/03/27 11:04:15;;;;;;;;;;;20.70;49.80;;;;;;4976114;28;19932;-76
2023/03/27 11:06:49;;;;;;;;;;;20.70;51.20;;;;;;4975909;28;19967;-76
2023/03/27 11:09:22;;;;;;;;;;;20.70;51.50;;;;;;4975809;28;19917;-76
2023/03/27 11:12:06;;;;;;;;;;;20.70;51.10;;;;;;4974969;28;20004;-76
2023/03/27 11:14:42;;;;;;;;;;;20.70;50.90;;;;;;5022397;28;19909;-76
2023/03/27 11:17:13;;;;;;;;;;;20.70;51.60;;;;;;5051328;28;20308;-76
2023/03/27 11:20:05;;;;;;;;;;;20.80;51.00;;;;;;5051314;28;19909;-76
2023/03/27 11:22:54;;;;;;;;;;;20.80;51.50;;;;;;5070397;28;19912;-75
2023/03/27 11:25:45;;;;;;;;;;;20.80;51.40;;;;;;5073459;28;20436;-76
2023/03/27 11:28:51;;;;;;;;;;;20.80;51.20;;;;;;5050895;28;20283;-76
2023/03/27 11:31:36;;;;;;;;;;;20.90;51.50;;;;;;4991945;28;19910;-76
2023/03/27 11:34:05;;;;;;;;;;;20.80;50.20;;;;;;4975610;28;20007;-76
2023/03/27 11:36:39;;;;;;;;;;;20.90;51.30;;;;;;4992026;28;20407;-76
2023/03/27 11:39:16;;;;;;;;;;;20.80;51.50;;;;;;4975207;28;19909;-76
2023/03/27 11:41:52;;;;;;;;;;;20.70;51.30;;;;;;4975643;28;20281;-76
2023/03/27 11:44:20;;;;;;;;;;;20.80;51.50;;;;;;4943596;28;19913;-76
2023/03/27 11:47:09;;;;;;;;;;;20.80;51.40;;;;;;4990141;28;20297;-76
2023/03/27 11:49:43;;;;;;;;;;;20.80;51.40;;;;;;4975274;28;19957;-76
2023/03/27 11:52:18;;;;;;;;;;;20.80;51.50;;;;;;4975261;28;20425;-76
2023/03/27 11:54:50;;;;;;;;;;;20.80;51.60;;;;;;4975232;28;19929;-76
2023/03/27 11:57:24;;;;;;;;;;;20.90;51.70;;;;;;4974929;28;20331;-76
2023/03/27 12:00:20;;;;;;;;;;;20.80;51.60;;;;;;4974829;28;19914;-76
2023/03/27 12:02:58;;;;;;;;;;;20.80;51.50;;;;;;4991148;28;19910;-76
2023/03/27 12:05:45;;;;;;;;;;;20.80;51.50;;;;;;5020767;28;19943;-77
2023/03/27 12:08:23;;;;;;;;;;;20.80;51.60;;;;;;5071441;28;20263;-76
2023/03/27 12:10:52;;;;;;;;;;;20.70;51.10;;;;;;5071576;28;19912;-76
2023/03/27 12:13:30;;;;;;;;;;;20.70;51.60;;;;;;5071440;28;19920;-76
2023/03/27 12:16:13;;;;;;;;;;;20.90;51.40;;;;;;5071477;28;20357;-76
2023/03/27 12:18:59;;;;;;;;;;;20.80;51.50;;;;;;5071330;28;19909;-76
2023/03/27 12:21:54;;;;;;;;;;;20.70;51.40;;;;;;5072652;28;20003;-76
2023/03/27 12:24:27;;;;;;;;;;;20.70;50.80;;;;;;4990575;28;20348;-76
2023/03/27 12:27:33;;;;;;;;;;;20.80;49.10;;;;;;4990830;28;19968;-76
2023/03/27 12:30:18;;;;;;;;;;;20.70;51.60;;;;;;4989445;28;19910;-76
2023/03/27 12:32:44;;;;;;;;;;;20.80;51.30;;;;;;4974520;28;20548;-76
2023/03/27 12:35:15;;;;;;;;;;;20.80;51.30;;;;;;4990681;28;20044;-76
2023/03/27 12:37:49;;;;;;;;;;;20.70;51.70;;;;;;4974460;28;19910;-76
2023/03/27 12:40:33;;;;;;;;;;;20.80;51.60;;;;;;4990481;28;19917;-76
2023/03/27 12:43:05;;;;;;;;;;;20.80;51.50;;;;;;4974216;28;19913;-76
2023/03/27 12:45:31;;;;;;;;;;;20.70;51.30;;;;;;4974635;28;19917;-76
2023/03/27 12:48:09;;;;;;;;;;;20.80;51.50;;;;;;4974221;28;20012;-76
2023/03/27 12:50:43;;;;;;;;;;;20.60;50.80;;;;;;4974694;28;20350;-76
2023/03/27 12:53:21;;;;;;;;;;;20.70;51.60;;;;;;4974180;28;19968;-76
2023/03/27 12:55:48;;;;;;;;;;;20.80;50.50;;;;;;4990287;28;19972;-76
2023/03/27 12:58:33;;;;;;;;;;;20.80;50.10;;;;;;4973909;28;20004;-76
2023/03/27 13:01:22;;;;;;;;;;;20.70;50.80;;;;;;4979615;28;19956;-76
2023/03/27 13:03:55;;;;;;;;;;;20.60;50.60;;;;;;4993481;28;20299;-76
2023/03/27 13:06:59;;;;;;;;;;;20.60;50.90;;;;;;4993349;28;19928;-76
2023/03/27 13:09:59;;;;;;;;;;;20.70;50.40;;;;;;4954607;28;19914;-76
2023/03/27 13:12:45;;;;;;;;;;;20.60;51.70;;;;;;4954524;28;19969;-76
2023/03/27 13:15:11;;;;;;;;;;;20.70;50.50;;;;;;4916124;29;19915;-76
2023/03/27 13:17:56;;;;;;;;;;;20.80;51.60;;;;;;4916286;29;19958;-77
2023/03/27 13:20:29;;;;;;;;;;;20.70;51.70;;;;;;4915914;29;19914;-77
2023/03/27 13:23:09;;;;;;;;;;;20.70;50.30;;;;;;4913075;29;19911;-77
2023/03/27 13:25:53;;;;;;;;;;;20.70;51.70;;;;;;4913151;29;19919;-76
2023/03/27 13:28:30;;;;;;;;;;;20.60;51.40;;;;;;4912930;29;20359;-76
2023/03/27 13:31:51;;;;;;;;;;;20.70;51.60;;;;;;4912796;29;19911;-76
2023/03/27 13:35:08;;;;;;;;;;;20.90;51.70;;;;;;4837795;29;20023;-76
2023/03/27 13:37:40;;;;;;;;;;;20.80;51.60;;;;;;4772160;29;19970;-76
2023/03/27 13:40:22;;;;;;;;;;;20.90;51.70;;;;;;4802995;29;19917;-76
2023/03/27 13:43:11;;;;;;;;;;;20.70;51.60;;;;;;4772285;29;19920;-76
2023/03/27 13:45:46;;;;;;;;;;;20.80;51.50;;;;;;4730714;30;19929;-76
2023/03/27 13:48:49;;;;;;;;;;;20.90;51.20;;;;;;4730612;30;19922;-76
2023/03/27 13:51:18;;;;;;;;;;;20.90;51.40;;;;;;4733469;30;20760;-77
2023/03/27 13:53:55;;;;;;;;;;;20.90;51.40;;;;;;4773309;29;20000;-76
2023/03/27 13:56:49;;;;;;;;;;;20.90;51.20;;;;;;4771079;30;19913;-76
2023/03/27 13:59:50;;;;;;;;;;;20.90;51.20;;;;;;4769034;30;20008;-77
2023/03/27 14:02:37;;;;;;;;;;;20.80;50.90;;;;;;4783638;30;20323;-76
2023/03/27 14:05:06;;;;;;;;;;;20.80;50.20;;;;;;4783882;29;20410;-76
2023/03/27 14:07:59;;;;;;;;;;;20.80;51.10;;;;;;4779942;29;19916;-76
2023/03/27 14:10:51;;;;;;;;;;;20.80;50.50;;;;;;4847069;29;19922;-76
2023/03/27 14:13:25;;;;;;;;;;;20.80;50.50;;;;;;4875175;29;19930;-76
2023/03/27 14:16:14;;;;;;;;;;;20.80;50.00;;;;;;4934694;29;19952;-76
2023/03/27 14:18:46;;;;;;;;;;;20.70;51.10;;;;;;4950881;29;19945;-76
2023/03/27 14:21:15;;;;;;;;;;;20.80;49.70;;;;;;4950671;29;19981;-76
2023/03/27 14:23:49;;;;;;;;;;;20.60;50.00;;;;;;5078046;28;19917;-76
2023/03/27 14:26:40;;;;;;;;;;;20.70;50.20;;;;;;5069541;28;19917;-76
2023/03/27 14:29:10;;;;;;;;;;;20.70;50.00;;;;;;5069714;28;19966;-76
2023/03/27 14:31:42;;;;;;;;;;;20.60;51.20;;;;;;5069863;28;19999;-76
2023/03/27 14:34:33;;;;;;;;;;;20.60;51.00;;;;;;5070672;28;19909;-76
2023/03/27 14:37:30;;;;;;;;;;;20.70;50.40;;;;;;5002003;28;20393;-76
2023/03/27 14:40:21;;;;;;;;;;;20.70;50.90;;;;;;4989062;28;19928;-76
2023/03/27 14:42:51;;;;;;;;;;;20.70;51.50;;;;;;4972870;28;19948;-77
2023/03/27 14:45:20;;;;;;;;;;;20.80;51.50;;;;;;5005634;28;19925;-76
2023/03/27 14:47:50;;;;;;;;;;;20.80;51.50;;;;;;4976461;28;20388;-76
2023/03/27 14:50:16;;;;;;;;;;;20.80;51.40;;;;;;4992587;28;20357;-76
2023/03/27 14:52:49;;;;;;;;;;;20.80;51.40;;;;;;4960478;28;19928;-76
2023/03/27 14:55:31;;;;;;;;;;;20.90;50.30;;;;;;4976482;28;19924;-76
2023/03/27 14:58:26;;;;;;;;;;;20.80;51.60;;;;;;4973188;28;19932;-75
2023/03/27 15:00:56;;;;;;;;;;;20.80;51.60;;;;;;4956729;28;19961;-76
2023/03/27 15:03:25;;;;;;;;;;;20.80;51.40;;;;;;4956820;28;20554;-76